sensor_id;sensor_type;location;lat;lon;timestamp;temperature;humidity
76384;SHT30;65204;48.606;7.598;2023-02-28T00:00:03;1.60;54.85
76384;SHT30;65204;48.606;7.598;2023-02-28T00:00:40;1.58;54.90
76384;SHT30;65204;48.606;7.598;2023-02-28T00:01:12;1.57;55.15
76384;SHT30;65204;48.606;7.598;2023-02-28T00:01:43;1.57;55.09
76384;SHT30;65204;48.606;7.598;2023-02-28T00:02:13;1.50;55.45
76384;SHT30;65204;48.606;7.598;2023-02-28T00:02:45;1.52;55.27
76384;SHT30;65204;48.606;7.598;2023-02-28T00:03:15;1.52;55.46
76384;SHT30;65204;48.606;7.598;2023-02-28T00:03:46;1.51;55.44
76384;SHT30;65204;48.606;7.598;2023-02-28T00:04:16;1.54;55.38
76384;SHT30;65204;48.606;7.598;2023-02-28T00:04:46;1.54;55.35
76384;SHT30;65204;48.606;7.598;2023-02-28T00:05:31;1.51;55.47
76384;SHT30;65204;48.606;7.598;2023-02-28T00:06:04;1.51;55.50
76384;SHT30;65204;48.606;7.598;2023-02-28T00:06:34;1.52;55.52
76384;SHT30;65204;48.606;7.598;2023-02-28T00:07:05;1.46;55.44
76384;SHT30;65204;48.606;7.598;2023-02-28T00:07:36;1.54;55.56
76384;SHT30;65204;48.606;7.598;2023-02-28T00:08:07;1.52;55.46
76384;SHT30;65204;48.606;7.598;2023-02-28T00:08:38;1.54;55.53
76384;SHT30;65204;48.606;7.598;2023-02-28T00:09:08;1.51;55.59
76384;SHT30;65204;48.606;7.598;2023-02-28T00:09:39;1.51;55.46
76384;SHT30;65204;48.606;7.598;2023-02-28T00:10:11;1.47;55.78
76384;SHT30;65204;48.606;7.598;2023-02-28T00:10:43;1.51;55.74
76384;SHT30;65204;48.606;7.598;2023-02-28T00:11:14;1.46;55.95
76384;SHT30;65204;48.606;7.598;2023-02-28T00:11:45;1.50;55.90
76384;SHT30;65204;48.606;7.598;2023-02-28T00:12:15;1.50;55.94
76384;SHT30;65204;48.606;7.598;2023-02-28T00:12:45;1.47;56.05
76384;SHT30;65204;48.606;7.598;2023-02-28T00:13:16;1.47;56.03
76384;SHT30;65204;48.606;7.598;2023-02-28T00:13:46;1.47;56.04
76384;SHT30;65204;48.606;7.598;2023-02-28T00:14:17;1.39;56.59
76384;SHT30;65204;48.606;7.598;2023-02-28T00:14:47;1.44;56.29
76384;SHT30;65204;48.606;7.598;2023-02-28T00:15:18;1.43;56.10
76384;SHT30;65204;48.606;7.598;2023-02-28T00:15:58;1.46;56.01
76384;SHT30;65204;48.606;7.598;2023-02-28T00:16:29;1.50;56.03
76384;SHT30;65204;48.606;7.598;2023-02-28T00:16:59;1.47;56.10
76384;SHT30;65204;48.606;7.598;2023-02-28T00:17:29;1.46;56.08
76384;SHT30;65204;48.606;7.598;2023-02-28T00:18:00;1.46;56.02
76384;SHT30;65204;48.606;7.598;2023-02-28T00:18:30;1.48;56.06
76384;SHT30;65204;48.606;7.598;2023-02-28T00:19:01;1.48;56.14
76384;SHT30;65204;48.606;7.598;2023-02-28T00:19:31;1.48;56.11
76384;SHT30;65204;48.606;7.598;2023-02-28T00:20:03;1.47;56.13
76384;SHT30;65204;48.606;7.598;2023-02-28T00:20:41;1.47;56.15
76384;SHT30;65204;48.606;7.598;2023-02-28T00:21:12;1.50;56.18
76384;SHT30;65204;48.606;7.598;2023-02-28T00:21:42;1.47;56.29
76384;SHT30;65204;48.606;7.598;2023-02-28T00:22:14;1.47;56.37
76384;SHT30;65204;48.606;7.598;2023-02-28T00:22:50;1.47;56.32
76384;SHT30;65204;48.606;7.598;2023-02-28T00:23:20;1.44;56.37
76384;SHT30;65204;48.606;7.598;2023-02-28T00:23:51;1.46;56.42
76384;SHT30;65204;48.606;7.598;2023-02-28T00:24:21;1.43;56.48
76384;SHT30;65204;48.606;7.598;2023-02-28T00:24:51;1.47;56.32
76384;SHT30;65204;48.606;7.598;2023-02-28T00:25:24;1.48;56.32
76384;SHT30;65204;48.606;7.598;2023-02-28T00:25:55;1.47;56.42
76384;SHT30;65204;48.606;7.598;2023-02-28T00:26:25;1.43;56.39
76384;SHT30;65204;48.606;7.598;2023-02-28T00:26:55;1.47;56.41
76384;SHT30;65204;48.606;7.598;2023-02-28T00:27:26;1.48;56.29
76384;SHT30;65204;48.606;7.598;2023-02-28T00:27:56;1.44;56.53
76384;SHT30;65204;48.606;7.598;2023-02-28T00:28:26;1.44;56.40
76384;SHT30;65204;48.606;7.598;2023-02-28T00:28:57;1.46;56.46
76384;SHT30;65204;48.606;7.598;2023-02-28T00:29:27;1.44;56.48
76384;SHT30;65204;48.606;7.598;2023-02-28T00:29:58;1.44;56.61
76384;SHT30;65204;48.606;7.598;2023-02-28T00:30:28;1.44;56.65
76384;SHT30;65204;48.606;7.598;2023-02-28T00:30:59;1.40;56.71
76384;SHT30;65204;48.606;7.598;2023-02-28T00:31:30;1.44;56.75
76384;SHT30;65204;48.606;7.598;2023-02-28T00:32:00;1.41;57.00
76384;SHT30;65204;48.606;7.598;2023-02-28T00:32:31;1.40;56.99
76384;SHT30;65204;48.606;7.598;2023-02-28T00:33:01;1.43;56.88
76384;SHT30;65204;48.606;7.598;2023-02-28T00:33:31;1.43;56.83
76384;SHT30;65204;48.606;7.598;2023-02-28T00:34:02;1.43;57.00
76384;SHT30;65204;48.606;7.598;2023-02-28T00:34:32;1.39;56.98
76384;SHT30;65204;48.606;7.598;2023-02-28T00:35:08;1.43;57.06
76384;SHT30;65204;48.606;7.598;2023-02-28T00:35:39;1.40;57.20
76384;SHT30;65204;48.606;7.598;2023-02-28T00:36:11;1.40;57.12
76384;SHT30;65204;48.606;7.598;2023-02-28T00:36:41;1.41;57.03
76384;SHT30;65204;48.606;7.598;2023-02-28T00:37:15;1.41;56.96
76384;SHT30;65204;48.606;7.598;2023-02-28T00:37:45;1.39;57.35
76384;SHT30;65204;48.606;7.598;2023-02-28T00:38:17;1.40;57.38
76384;SHT30;65204;48.606;7.598;2023-02-28T00:38:48;1.41;57.25
76384;SHT30;65204;48.606;7.598;2023-02-28T00:39:18;1.36;57.46
76384;SHT30;65204;48.606;7.598;2023-02-28T00:39:49;1.33;57.31
76384;SHT30;65204;48.606;7.598;2023-02-28T00:40:19;1.40;57.38
76384;SHT30;65204;48.606;7.598;2023-02-28T00:40:49;1.37;57.36
76384;SHT30;65204;48.606;7.598;2023-02-28T00:41:19;1.39;57.46
76384;SHT30;65204;48.606;7.598;2023-02-28T00:41:50;1.31;57.47
76384;SHT30;65204;48.606;7.598;2023-02-28T00:42:20;1.30;57.70
76384;SHT30;65204;48.606;7.598;2023-02-28T00:42:51;1.31;57.56
76384;SHT30;65204;48.606;7.598;2023-02-28T00:43:21;1.33;57.62
76384;SHT30;65204;48.606;7.598;2023-02-28T00:43:51;1.34;57.63
76384;SHT30;65204;48.606;7.598;2023-02-28T00:44:21;1.31;57.60
76384;SHT30;65204;48.606;7.598;2023-02-28T00:44:52;1.31;57.55
76384;SHT30;65204;48.606;7.598;2023-02-28T00:45:22;1.30;57.50
76384;SHT30;65204;48.606;7.598;2023-02-28T00:45:53;1.30;57.47
76384;SHT30;65204;48.606;7.598;2023-02-28T00:46:23;1.31;57.52
76384;SHT30;65204;48.606;7.598;2023-02-28T00:46:53;1.30;57.63
76384;SHT30;65204;48.606;7.598;2023-02-28T00:47:25;1.31;57.65
76384;SHT30;65204;48.606;7.598;2023-02-28T00:47:55;1.34;57.70
76384;SHT30;65204;48.606;7.598;2023-02-28T00:48:26;1.30;57.96
76384;SHT30;65204;48.606;7.598;2023-02-28T00:48:56;1.31;57.80
76384;SHT30;65204;48.606;7.598;2023-02-28T00:49:27;1.33;57.80
76384;SHT30;65204;48.606;7.598;2023-02-28T00:49:58;1.33;57.74
76384;SHT30;65204;48.606;7.598;2023-02-28T00:50:28;1.33;57.89
76384;SHT30;65204;48.606;7.598;2023-02-28T00:50:59;1.31;58.01
76384;SHT30;65204;48.606;7.598;2023-02-28T00:51:29;1.29;58.08
76384;SHT30;65204;48.606;7.598;2023-02-28T00:51:59;1.31;57.90
76384;SHT30;65204;48.606;7.598;2023-02-28T00:52:30;1.31;57.89
76384;SHT30;65204;48.606;7.598;2023-02-28T00:53:00;1.31;57.80
76384;SHT30;65204;48.606;7.598;2023-02-28T00:53:31;1.17;58.14
76384;SHT30;65204;48.606;7.598;2023-02-28T00:54:02;1.26;58.14
76384;SHT30;65204;48.606;7.598;2023-02-28T00:54:33;1.27;58.21
76384;SHT30;65204;48.606;7.598;2023-02-28T00:55:04;1.27;58.17
76384;SHT30;65204;48.606;7.598;2023-02-28T00:55:34;1.27;58.13
76384;SHT30;65204;48.606;7.598;2023-02-28T00:56:05;1.30;58.09
76384;SHT30;65204;48.606;7.598;2023-02-28T00:56:35;1.29;58.16
76384;SHT30;65204;48.606;7.598;2023-02-28T00:57:06;1.23;58.21
76384;SHT30;65204;48.606;7.598;2023-02-28T00:57:36;1.29;58.26
76384;SHT30;65204;48.606;7.598;2023-02-28T00:58:06;1.24;58.34
76384;SHT30;65204;48.606;7.598;2023-02-28T00:58:37;1.24;58.20
76384;SHT30;65204;48.606;7.598;2023-02-28T00:59:07;1.23;58.28
76384;SHT30;65204;48.606;7.598;2023-02-28T00:59:37;1.23;58.45
76384;SHT30;65204;48.606;7.598;2023-02-28T01:00:08;1.27;58.41
76384;SHT30;65204;48.606;7.598;2023-02-28T01:00:39;1.26;58.30
76384;SHT30;65204;48.606;7.598;2023-02-28T01:01:09;1.27;58.32
76384;SHT30;65204;48.606;7.598;2023-02-28T01:01:40;1.26;58.30
76384;SHT30;65204;48.606;7.598;2023-02-28T01:02:11;1.24;58.45
76384;SHT30;65204;48.606;7.598;2023-02-28T01:02:41;1.24;58.44
76384;SHT30;65204;48.606;7.598;2023-02-28T01:03:12;1.23;58.44
76384;SHT30;65204;48.606;7.598;2023-02-28T01:03:42;1.23;58.77
76384;SHT30;65204;48.606;7.598;2023-02-28T01:04:13;1.23;58.78
76384;SHT30;65204;48.606;7.598;2023-02-28T01:04:43;1.22;58.59
76384;SHT30;65204;48.606;7.598;2023-02-28T01:05:14;1.26;58.59
76384;SHT30;65204;48.606;7.598;2023-02-28T01:05:45;1.23;58.57
76384;SHT30;65204;48.606;7.598;2023-02-28T01:06:15;1.26;58.69
76384;SHT30;65204;48.606;7.598;2023-02-28T01:06:45;1.24;58.66
76384;SHT30;65204;48.606;7.598;2023-02-28T01:07:16;1.24;58.77
76384;SHT30;65204;48.606;7.598;2023-02-28T01:07:46;1.22;58.68
76384;SHT30;65204;48.606;7.598;2023-02-28T01:08:16;1.23;58.64
76384;SHT30;65204;48.606;7.598;2023-02-28T01:08:47;1.23;58.61
76384;SHT30;65204;48.606;7.598;2023-02-28T01:09:18;1.23;58.69
76384;SHT30;65204;48.606;7.598;2023-02-28T01:09:49;1.24;58.76
76384;SHT30;65204;48.606;7.598;2023-02-28T01:10:19;1.23;58.78
76384;SHT30;65204;48.606;7.598;2023-02-28T01:10:51;1.22;58.75
76384;SHT30;65204;48.606;7.598;2023-02-28T01:11:21;1.24;58.76
76384;SHT30;65204;48.606;7.598;2023-02-28T01:11:51;1.22;58.89
76384;SHT30;65204;48.606;7.598;2023-02-28T01:12:22;1.22;58.87
76384;SHT30;65204;48.606;7.598;2023-02-28T01:12:52;1.23;58.86
76384;SHT30;65204;48.606;7.598;2023-02-28T01:13:23;1.22;58.90
76384;SHT30;65204;48.606;7.598;2023-02-28T01:13:53;1.16;59.22
76384;SHT30;65204;48.606;7.598;2023-02-28T01:14:24;1.16;59.19
76384;SHT30;65204;48.606;7.598;2023-02-28T01:14:54;1.16;59.22
76384;SHT30;65204;48.606;7.598;2023-02-28T01:15:24;1.13;59.45
76384;SHT30;65204;48.606;7.598;2023-02-28T01:15:55;1.15;59.30
76384;SHT30;65204;48.606;7.598;2023-02-28T01:16:27;1.17;59.28
76384;SHT30;65204;48.606;7.598;2023-02-28T01:16:57;1.20;59.25
76384;SHT30;65204;48.606;7.598;2023-02-28T01:17:27;1.17;59.15
76384;SHT30;65204;48.606;7.598;2023-02-28T01:17:58;1.19;59.22
76384;SHT30;65204;48.606;7.598;2023-02-28T01:18:28;1.16;59.30
76384;SHT30;65204;48.606;7.598;2023-02-28T01:18:59;1.19;59.27
76384;SHT30;65204;48.606;7.598;2023-02-28T01:19:29;1.09;59.36
76384;SHT30;65204;48.606;7.598;2023-02-28T01:19:59;1.16;59.32
76384;SHT30;65204;48.606;7.598;2023-02-28T01:20:30;1.17;59.36
76384;SHT30;65204;48.606;7.598;2023-02-28T01:21:14;1.17;59.26
76384;SHT30;65204;48.606;7.598;2023-02-28T01:21:45;1.20;59.49
76384;SHT30;65204;48.606;7.598;2023-02-28T01:22:15;1.20;59.41
76384;SHT30;65204;48.606;7.598;2023-02-28T01:22:46;1.19;59.41
76384;SHT30;65204;48.606;7.598;2023-02-28T01:23:16;1.20;59.28
76384;SHT30;65204;48.606;7.598;2023-02-28T01:23:48;1.20;59.46
76384;SHT30;65204;48.606;7.598;2023-02-28T01:24:18;1.19;59.33
76384;SHT30;65204;48.606;7.598;2023-02-28T01:24:49;1.16;59.50
76384;SHT30;65204;48.606;7.598;2023-02-28T01:25:19;1.16;59.47
76384;SHT30;65204;48.606;7.598;2023-02-28T01:25:51;1.12;59.42
76384;SHT30;65204;48.606;7.598;2023-02-28T01:26:22;1.16;59.55
76384;SHT30;65204;48.606;7.598;2023-02-28T01:26:52;1.15;59.50
76384;SHT30;65204;48.606;7.598;2023-02-28T01:27:23;0.95;59.92
76384;SHT30;65204;48.606;7.598;2023-02-28T01:27:53;1.03;59.85
76384;SHT30;65204;48.606;7.598;2023-02-28T01:28:23;1.09;59.69
76384;SHT30;65204;48.606;7.598;2023-02-28T01:28:54;1.04;59.73
76384;SHT30;65204;48.606;7.598;2023-02-28T01:29:24;1.09;59.79
76384;SHT30;65204;48.606;7.598;2023-02-28T01:29:55;1.10;59.69
76384;SHT30;65204;48.606;7.598;2023-02-28T01:30:25;1.12;59.67
76384;SHT30;65204;48.606;7.598;2023-02-28T01:30:55;1.09;59.80
76384;SHT30;65204;48.606;7.598;2023-02-28T01:31:25;1.04;59.68
76384;SHT30;65204;48.606;7.598;2023-02-28T01:31:56;1.09;59.75
76384;SHT30;65204;48.606;7.598;2023-02-28T01:32:27;1.15;59.64
76384;SHT30;65204;48.606;7.598;2023-02-28T01:32:57;1.12;59.55
76384;SHT30;65204;48.606;7.598;2023-02-28T01:33:28;1.12;59.71
76384;SHT30;65204;48.606;7.598;2023-02-28T01:33:59;1.07;59.65
76384;SHT30;65204;48.606;7.598;2023-02-28T01:34:29;1.10;59.82
76384;SHT30;65204;48.606;7.598;2023-02-28T01:34:59;1.09;59.76
76384;SHT30;65204;48.606;7.598;2023-02-28T01:35:33;1.09;59.72
76384;SHT30;65204;48.606;7.598;2023-02-28T01:36:11;1.12;59.72
76384;SHT30;65204;48.606;7.598;2023-02-28T01:36:41;1.10;59.83
76384;SHT30;65204;48.606;7.598;2023-02-28T01:37:12;1.09;59.87
76384;SHT30;65204;48.606;7.598;2023-02-28T01:37:42;1.07;59.73
76384;SHT30;65204;48.606;7.598;2023-02-28T01:38:12;1.09;59.69
76384;SHT30;65204;48.606;7.598;2023-02-28T01:38:43;1.10;59.82
76384;SHT30;65204;48.606;7.598;2023-02-28T01:39:14;1.06;59.70
76384;SHT30;65204;48.606;7.598;2023-02-28T01:39:44;1.07;59.83
76384;SHT30;65204;48.606;7.598;2023-02-28T01:40:14;1.10;59.85
76384;SHT30;65204;48.606;7.598;2023-02-28T01:40:45;1.07;59.80
76384;SHT30;65204;48.606;7.598;2023-02-28T01:41:27;1.07;59.96
76384;SHT30;65204;48.606;7.598;2023-02-28T01:41:58;1.00;59.97
76384;SHT30;65204;48.606;7.598;2023-02-28T01:42:28;1.03;59.87
76384;SHT30;65204;48.606;7.598;2023-02-28T01:42:59;0.95;60.11
76384;SHT30;65204;48.606;7.598;2023-02-28T01:43:53;1.00;60.06
76384;SHT30;65204;48.606;7.598;2023-02-28T01:44:57;1.01;59.90
76384;SHT30;65204;48.606;7.598;2023-02-28T01:45:30;0.97;60.10
76384;SHT30;65204;48.606;7.598;2023-02-28T01:46:01;0.96;60.27
76384;SHT30;65204;48.606;7.598;2023-02-28T01:46:34;0.97;60.15
76384;SHT30;65204;48.606;7.598;2023-02-28T01:47:04;0.96;60.06
76384;SHT30;65204;48.606;7.598;2023-02-28T01:47:38;0.96;60.08
76384;SHT30;65204;48.606;7.598;2023-02-28T01:48:10;0.99;59.94
76384;SHT30;65204;48.606;7.598;2023-02-28T01:48:53;1.00;59.86
76384;SHT30;65204;48.606;7.598;2023-02-28T01:49:24;1.00;59.96
76384;SHT30;65204;48.606;7.598;2023-02-28T01:49:55;1.01;59.98
76384;SHT30;65204;48.606;7.598;2023-02-28T01:50:28;0.97;60.10
76384;SHT30;65204;48.606;7.598;2023-02-28T01:51:04;1.04;60.07
76384;SHT30;65204;48.606;7.598;2023-02-28T01:51:54;1.03;60.04
76384;SHT30;65204;48.606;7.598;2023-02-28T01:52:26;1.04;59.96
76384;SHT30;65204;48.606;7.598;2023-02-28T01:53:02;1.00;59.90
76384;SHT30;65204;48.606;7.598;2023-02-28T01:53:41;1.01;59.91
76384;SHT30;65204;48.606;7.598;2023-02-28T01:54:17;1.00;60.12
76384;SHT30;65204;48.606;7.598;2023-02-28T01:54:52;1.01;59.97
76384;SHT30;65204;48.606;7.598;2023-02-28T01:55:24;1.00;59.96
76384;SHT30;65204;48.606;7.598;2023-02-28T01:55:58;0.99;60.10
76384;SHT30;65204;48.606;7.598;2023-02-28T01:56:31;1.00;60.00
76384;SHT30;65204;48.606;7.598;2023-02-28T01:57:13;1.01;60.18
76384;SHT30;65204;48.606;7.598;2023-02-28T01:57:55;0.99;60.27
76384;SHT30;65204;48.606;7.598;2023-02-28T01:58:26;0.97;60.13
76384;SHT30;65204;48.606;7.598;2023-02-28T01:58:57;0.95;60.24
76384;SHT30;65204;48.606;7.598;2023-02-28T01:59:37;0.88;60.39
76384;SHT30;65204;48.606;7.598;2023-02-28T02:00:18;0.78;60.60
76384;SHT30;65204;48.606;7.598;2023-02-28T02:00:50;0.89;60.60
76384;SHT30;65204;48.606;7.598;2023-02-28T02:01:22;0.89;60.53
76384;SHT30;65204;48.606;7.598;2023-02-28T02:01:53;0.90;60.49
76384;SHT30;65204;48.606;7.598;2023-02-28T02:02:25;0.93;60.44
76384;SHT30;65204;48.606;7.598;2023-02-28T02:02:59;0.92;60.48
76384;SHT30;65204;48.606;7.598;2023-02-28T02:03:30;0.93;60.48
76384;SHT30;65204;48.606;7.598;2023-02-28T02:04:02;0.96;60.40
76384;SHT30;65204;48.606;7.598;2023-02-28T02:05:01;0.99;60.11
76384;SHT30;65204;48.606;7.598;2023-02-28T02:05:32;0.99;60.10
76384;SHT30;65204;48.606;7.598;2023-02-28T02:06:03;0.99;60.15
76384;SHT30;65204;48.606;7.598;2023-02-28T02:06:38;0.97;60.17
76384;SHT30;65204;48.606;7.598;2023-02-28T02:07:11;0.97;60.13
76384;SHT30;65204;48.606;7.598;2023-02-28T02:07:44;0.85;60.35
76384;SHT30;65204;48.606;7.598;2023-02-28T02:08:21;0.92;60.48
76384;SHT30;65204;48.606;7.598;2023-02-28T02:08:52;0.92;60.38
76384;SHT30;65204;48.606;7.598;2023-02-28T02:09:23;0.90;60.51
76384;SHT30;65204;48.606;7.598;2023-02-28T02:10:11;0.90;60.59
76384;SHT30;65204;48.606;7.598;2023-02-28T02:11:05;0.95;60.40
76384;SHT30;65204;48.606;7.598;2023-02-28T02:11:36;0.92;60.38
76384;SHT30;65204;48.606;7.598;2023-02-28T02:12:29;0.92;60.36
76384;SHT30;65204;48.606;7.598;2023-02-28T02:13:22;0.96;60.32
76384;SHT30;65204;48.606;7.598;2023-02-28T02:15:16;0.93;60.29
76384;SHT30;65204;48.606;7.598;2023-02-28T02:16:04;0.93;60.41
76384;SHT30;65204;48.606;7.598;2023-02-28T02:17:46;0.95;60.35
76384;SHT30;65204;48.606;7.598;2023-02-28T02:19:37;0.90;60.43
76384;SHT30;65204;48.606;7.598;2023-02-28T02:22:20;0.76;60.89
76384;SHT30;65204;48.606;7.598;2023-02-28T02:23:07;0.86;60.93
76384;SHT30;65204;48.606;7.598;2023-02-28T02:27:57;0.78;61.26
76384;SHT30;65204;48.606;7.598;2023-02-28T02:28:57;0.80;61.17
76384;SHT30;65204;48.606;7.598;2023-02-28T02:29:50;0.80;61.09
76384;SHT30;65204;48.606;7.598;2023-02-28T02:30:46;0.80;61.18
76384;SHT30;65204;48.606;7.598;2023-02-28T02:31:49;0.80;61.05
76384;SHT30;65204;48.606;7.598;2023-02-28T02:35:27;0.83;61.08
76384;SHT30;65204;48.606;7.598;2023-02-28T02:36:06;0.85;60.98
76384;SHT30;65204;48.606;7.598;2023-02-28T02:37:38;0.80;61.15
76384;SHT30;65204;48.606;7.598;2023-02-28T02:38:23;0.80;61.24
76384;SHT30;65204;48.606;7.598;2023-02-28T02:39:04;0.78;61.15
76384;SHT30;65204;48.606;7.598;2023-02-28T02:39:47;0.80;61.28
76384;SHT30;65204;48.606;7.598;2023-02-28T02:40:43;0.80;61.26
76384;SHT30;65204;48.606;7.598;2023-02-28T02:41:33;0.79;61.34
76384;SHT30;65204;48.606;7.598;2023-02-28T02:42:16;0.79;61.31
76384;SHT30;65204;48.606;7.598;2023-02-28T02:42:52;0.79;61.35
76384;SHT30;65204;48.606;7.598;2023-02-28T02:43:36;0.78;61.38
76384;SHT30;65204;48.606;7.598;2023-02-28T02:44:27;0.76;61.42
76384;SHT30;65204;48.606;7.598;2023-02-28T02:45:09;0.75;61.41
76384;SHT30;65204;48.606;7.598;2023-02-28T02:46:48;0.76;61.47
76384;SHT30;65204;48.606;7.598;2023-02-28T02:47:21;0.80;61.41
76384;SHT30;65204;48.606;7.598;2023-02-28T02:47:56;0.79;61.43
76384;SHT30;65204;48.606;7.598;2023-02-28T02:48:32;0.79;61.35
76384;SHT30;65204;48.606;7.598;2023-02-28T02:49:07;0.79;61.49
76384;SHT30;65204;48.606;7.598;2023-02-28T02:49:42;0.79;61.39
76384;SHT30;65204;48.606;7.598;2023-02-28T02:50:21;0.78;61.22
76384;SHT30;65204;48.606;7.598;2023-02-28T02:50:56;0.79;61.30
76384;SHT30;65204;48.606;7.598;2023-02-28T02:51:30;0.75;61.32
76384;SHT30;65204;48.606;7.598;2023-02-28T02:52:04;0.79;61.51
76384;SHT30;65204;48.606;7.598;2023-02-28T02:52:45;0.78;61.37
76384;SHT30;65204;48.606;7.598;2023-02-28T02:53:19;0.78;61.50
76384;SHT30;65204;48.606;7.598;2023-02-28T02:53:59;0.78;61.55
76384;SHT30;65204;48.606;7.598;2023-02-28T02:54:35;0.78;61.44
76384;SHT30;65204;48.606;7.598;2023-02-28T02:55:07;0.79;61.48
76384;SHT30;65204;48.606;7.598;2023-02-28T02:55:44;0.79;61.41
76384;SHT30;65204;48.606;7.598;2023-02-28T02:56:19;0.76;61.67
76384;SHT30;65204;48.606;7.598;2023-02-28T02:56:51;0.76;61.55
76384;SHT30;65204;48.606;7.598;2023-02-28T02:57:36;0.78;61.52
76384;SHT30;65204;48.606;7.598;2023-02-28T02:58:12;0.79;61.46
76384;SHT30;65204;48.606;7.598;2023-02-28T02:58:43;0.80;61.53
76384;SHT30;65204;48.606;7.598;2023-02-28T02:59:19;0.75;61.59
76384;SHT30;65204;48.606;7.598;2023-02-28T02:59:52;0.73;61.78
76384;SHT30;65204;48.606;7.598;2023-02-28T03:00:30;0.78;61.54
76384;SHT30;65204;48.606;7.598;2023-02-28T03:01:03;0.75;61.66
76384;SHT30;65204;48.606;7.598;2023-02-28T03:01:36;0.78;61.62
76384;SHT30;65204;48.606;7.598;2023-02-28T03:02:12;0.78;61.61
76384;SHT30;65204;48.606;7.598;2023-02-28T03:02:45;0.79;61.56
76384;SHT30;65204;48.606;7.598;2023-02-28T03:03:18;0.76;61.68
76384;SHT30;65204;48.606;7.598;2023-02-28T03:03:50;0.76;61.63
76384;SHT30;65204;48.606;7.598;2023-02-28T03:04:23;0.75;61.67
76384;SHT30;65204;48.606;7.598;2023-02-28T03:05:01;0.76;61.68
76384;SHT30;65204;48.606;7.598;2023-02-28T03:05:44;0.78;61.63
76384;SHT30;65204;48.606;7.598;2023-02-28T03:06:16;0.76;61.75
76384;SHT30;65204;48.606;7.598;2023-02-28T03:06:46;0.78;61.57
76384;SHT30;65204;48.606;7.598;2023-02-28T03:07:17;0.75;61.65
76384;SHT30;65204;48.606;7.598;2023-02-28T03:07:47;0.78;61.66
76384;SHT30;65204;48.606;7.598;2023-02-28T03:08:17;0.79;61.52
76384;SHT30;65204;48.606;7.598;2023-02-28T03:08:48;0.79;61.58
76384;SHT30;65204;48.606;7.598;2023-02-28T03:09:19;0.80;61.64
76384;SHT30;65204;48.606;7.598;2023-02-28T03:09:56;0.78;61.61
76384;SHT30;65204;48.606;7.598;2023-02-28T03:10:28;0.78;61.67
76384;SHT30;65204;48.606;7.598;2023-02-28T03:11:03;0.80;61.61
76384;SHT30;65204;48.606;7.598;2023-02-28T03:11:35;0.80;61.60
76384;SHT30;65204;48.606;7.598;2023-02-28T03:12:11;0.83;61.56
76384;SHT30;65204;48.606;7.598;2023-02-28T03:12:51;0.82;61.56
76384;SHT30;65204;48.606;7.598;2023-02-28T03:15:14;0.80;61.71
76384;SHT30;65204;48.606;7.598;2023-02-28T03:18:10;0.76;61.83
76384;SHT30;65204;48.606;7.598;2023-02-28T03:21:12;0.72;61.92
76384;SHT30;65204;48.606;7.598;2023-02-28T03:22:51;0.70;62.29
76384;SHT30;65204;48.606;7.598;2023-02-28T03:23:43;0.70;62.20
76384;SHT30;65204;48.606;7.598;2023-02-28T03:24:19;0.69;62.23
76384;SHT30;65204;48.606;7.598;2023-02-28T03:26:02;0.59;62.59
76384;SHT30;65204;48.606;7.598;2023-02-28T03:26:38;0.64;62.41
76384;SHT30;65204;48.606;7.598;2023-02-28T03:27:40;0.61;62.55
76384;SHT30;65204;48.606;7.598;2023-02-28T03:28:27;0.62;62.33
76384;SHT30;65204;48.606;7.598;2023-02-28T03:29:06;0.61;62.32
76384;SHT30;65204;48.606;7.598;2023-02-28T03:29:55;0.61;62.46
76384;SHT30;65204;48.606;7.598;2023-02-28T03:30:44;0.65;62.33
76384;SHT30;65204;48.606;7.598;2023-02-28T03:32:08;0.66;62.25
76384;SHT30;65204;48.606;7.598;2023-02-28T03:33:32;0.66;62.22
76384;SHT30;65204;48.606;7.598;2023-02-28T03:34:10;0.59;62.48
76384;SHT30;65204;48.606;7.598;2023-02-28T03:34:48;0.59;62.44
76384;SHT30;65204;48.606;7.598;2023-02-28T03:35:23;0.61;62.39
76384;SHT30;65204;48.606;7.598;2023-02-28T03:35:59;0.61;62.42
76384;SHT30;65204;48.606;7.598;2023-02-28T03:36:38;0.61;62.46
76384;SHT30;65204;48.606;7.598;2023-02-28T03:37:18;0.62;62.46
76384;SHT30;65204;48.606;7.598;2023-02-28T03:37:59;0.59;62.41
76384;SHT30;65204;48.606;7.598;2023-02-28T03:38:35;0.58;62.40
76384;SHT30;65204;48.606;7.598;2023-02-28T03:39:11;0.56;62.57
76384;SHT30;65204;48.606;7.598;2023-02-28T03:39:48;0.58;62.50
76384;SHT30;65204;48.606;7.598;2023-02-28T03:40:23;0.56;62.69
76384;SHT30;65204;48.606;7.598;2023-02-28T03:41:05;0.56;62.64
76384;SHT30;65204;48.606;7.598;2023-02-28T03:41:47;0.56;62.76
76384;SHT30;65204;48.606;7.598;2023-02-28T03:42:27;0.56;62.49
76384;SHT30;65204;48.606;7.598;2023-02-28T03:43:04;0.59;62.53
76384;SHT30;65204;48.606;7.598;2023-02-28T03:43:40;0.58;62.55
76384;SHT30;65204;48.606;7.598;2023-02-28T03:44:16;0.59;62.45
76384;SHT30;65204;48.606;7.598;2023-02-28T03:44:56;0.59;62.40
76384;SHT30;65204;48.606;7.598;2023-02-28T03:45:33;0.58;62.41
76384;SHT30;65204;48.606;7.598;2023-02-28T03:46:09;0.62;62.23
76384;SHT30;65204;48.606;7.598;2023-02-28T03:47:03;0.62;62.35
76384;SHT30;65204;48.606;7.598;2023-02-28T03:47:47;0.61;62.39
76384;SHT30;65204;48.606;7.598;2023-02-28T03:48:23;0.59;62.47
76384;SHT30;65204;48.606;7.598;2023-02-28T03:49:03;0.58;62.38
76384;SHT30;65204;48.606;7.598;2023-02-28T03:49:42;0.59;62.32
76384;SHT30;65204;48.606;7.598;2023-02-28T03:50:23;0.55;62.34
76384;SHT30;65204;48.606;7.598;2023-02-28T03:50:57;0.55;62.40
76384;SHT30;65204;48.606;7.598;2023-02-28T03:51:29;0.56;62.34
76384;SHT30;65204;48.606;7.598;2023-02-28T03:52:02;0.55;62.44
76384;SHT30;65204;48.606;7.598;2023-02-28T03:52:37;0.55;62.40
76384;SHT30;65204;48.606;7.598;2023-02-28T03:53:14;0.56;62.37
76384;SHT30;65204;48.606;7.598;2023-02-28T03:54:04;0.49;62.58
76384;SHT30;65204;48.606;7.598;2023-02-28T03:54:40;0.55;62.46
76384;SHT30;65204;48.606;7.598;2023-02-28T03:55:13;0.52;62.45
76384;SHT30;65204;48.606;7.598;2023-02-28T03:55:56;0.48;62.44
76384;SHT30;65204;48.606;7.598;2023-02-28T03:56:34;0.51;62.50
76384;SHT30;65204;48.606;7.598;2023-02-28T03:57:53;0.49;62.49
76384;SHT30;65204;48.606;7.598;2023-02-28T03:58:45;0.49;62.54
76384;SHT30;65204;48.606;7.598;2023-02-28T03:59:30;0.49;62.51
76384;SHT30;65204;48.606;7.598;2023-02-28T04:00:12;0.48;62.52
76384;SHT30;65204;48.606;7.598;2023-02-28T04:00:47;0.46;62.56
76384;SHT30;65204;48.606;7.598;2023-02-28T04:02:01;0.46;62.55
76384;SHT30;65204;48.606;7.598;2023-02-28T04:02:32;0.45;62.65
76384;SHT30;65204;48.606;7.598;2023-02-28T04:03:03;0.48;62.77
76384;SHT30;65204;48.606;7.598;2023-02-28T04:03:35;0.46;62.73
76384;SHT30;65204;48.606;7.598;2023-02-28T04:04:07;0.46;62.68
76384;SHT30;65204;48.606;7.598;2023-02-28T04:04:37;0.48;62.73
76384;SHT30;65204;48.606;7.598;2023-02-28T04:05:08;0.44;62.80
76384;SHT30;65204;48.606;7.598;2023-02-28T04:05:51;0.45;62.78
76384;SHT30;65204;48.606;7.598;2023-02-28T04:06:23;0.48;62.62
76384;SHT30;65204;48.606;7.598;2023-02-28T04:07:02;0.45;62.71